Terminal Aerodrome Forecast
Issued by NWS

Home | Current Version | Previous Version | Text Only | Print | Product List | Glossary On
Versions: 1 2 3 4 5 6 7 8 9 10 11 12 13 14 15 16 17 18 19 20 21 22 23 24 25 26 27 28 29 30 31 32 33 34 35 36 37 38 39 40
000
FTUS43 KDTX 300536
TAFYIP
TAF
KYIP 300536Z 3006/0106 06004KT P6SM OVC045
     FM301500 08010KT P6SM OVC150
     FM302200 08008KT 6SM -SHRA BKN030 OVC050
     FM010100 08008KT 2SM RA BR OVC025
     FM010400 05010KT 1SM RA BR OVC012=

USA.gov is the U.S. government's official web portal to all federal, state and local government web resources and services.